sensor_id;sensor_type;location;lat;lon;timestamp;temperature;humidity
20777;DHT22;10548;47.504;8.248;2022-09-09T00:02:24;13.60;99.90
20777;DHT22;10548;47.504;8.248;2022-09-09T00:05:17;13.80;99.90
20777;DHT22;10548;47.504;8.248;2022-09-09T00:07:52;13.80;99.90
20777;DHT22;10548;47.504;8.248;2022-09-09T00:10:33;13.90;99.90
20777;DHT22;10548;47.504;8.248;2022-09-09T00:13:23;13.90;99.90
20777;DHT22;10548;47.504;8.248;2022-09-09T00:16:33;13.90;99.90
20777;DHT22;10548;47.504;8.248;2022-09-09T00:19:18;13.90;99.90
20777;DHT22;10548;47.504;8.248;2022-09-09T00:22:00;13.90;99.90
20777;DHT22;10548;47.504;8.248;2022-09-09T00:25:15;13.90;99.90
20777;DHT22;10548;47.504;8.248;2022-09-09T00:28:00;14.00;99.90
20777;DHT22;10548;47.504;8.248;2022-09-09T00:30:32;14.10;99.90
20777;DHT22;10548;47.504;8.248;2022-09-09T00:33:10;14.00;99.90
20777;DHT22;10548;47.504;8.248;2022-09-09T00:35:49;14.00;99.90
20777;DHT22;10548;47.504;8.248;2022-09-09T00:38:25;14.00;99.90
20777;DHT22;10548;47.504;8.248;2022-09-09T00:41:18;13.90;99.90
20777;DHT22;10548;47.504;8.248;2022-09-09T00:44:31;14.00;99.90
20777;DHT22;10548;47.504;8.248;2022-09-09T00:47:38;13.90;99.90
20777;DHT22;10548;47.504;8.248;2022-09-09T00:54:05;13.90;99.90
20777;DHT22;10548;47.504;8.248;2022-09-09T00:59:45;13.80;99.90
20777;DHT22;10548;47.504;8.248;2022-09-09T01:02:39;13.90;99.90
20777;DHT22;10548;47.504;8.248;2022-09-09T01:05:25;13.90;99.90
20777;DHT22;10548;47.504;8.248;2022-09-09T01:07:54;13.90;99.90
20777;DHT22;10548;47.504;8.248;2022-09-09T01:10:48;13.90;99.90
20777;DHT22;10548;47.504;8.248;2022-09-09T01:13:27;14.00;99.90
20777;DHT22;10548;47.504;8.248;2022-09-09T01:16:01;14.00;99.90
20777;DHT22;10548;47.504;8.248;2022-09-09T01:18:48;14.10;99.90
20777;DHT22;10548;47.504;8.248;2022-09-09T01:21:35;14.10;99.90
20777;DHT22;10548;47.504;8.248;2022-09-09T01:24:35;14.20;99.90
20777;DHT22;10548;47.504;8.248;2022-09-09T01:27:14;14.20;99.90
20777;DHT22;10548;47.504;8.248;2022-09-09T01:29:41;14.20;99.90
20777;DHT22;10548;47.504;8.248;2022-09-09T01:32:44;14.20;99.90
20777;DHT22;10548;47.504;8.248;2022-09-09T01:35:22;14.30;99.90
20777;DHT22;10548;47.504;8.248;2022-09-09T01:37:54;14.20;99.90
20777;DHT22;10548;47.504;8.248;2022-09-09T01:40:21;14.20;99.90
20777;DHT22;10548;47.504;8.248;2022-09-09T01:42:49;14.20;99.90
20777;DHT22;10548;47.504;8.248;2022-09-09T01:45:16;14.20;99.90
20777;DHT22;10548;47.504;8.248;2022-09-09T01:47:44;14.20;99.90
20777;DHT22;10548;47.504;8.248;2022-09-09T01:50:20;14.10;99.90
20777;DHT22;10548;47.504;8.248;2022-09-09T01:52:52;14.10;99.90
20777;DHT22;10548;47.504;8.248;2022-09-09T01:55:39;14.10;99.90
20777;DHT22;10548;47.504;8.248;2022-09-09T01:58:50;14.20;99.90
20777;DHT22;10548;47.504;8.248;2022-09-09T02:04:48;14.10;99.90
20777;DHT22;10548;47.504;8.248;2022-09-09T02:07:47;14.10;99.90
20777;DHT22;10548;47.504;8.248;2022-09-09T02:10:33;14.10;99.90
20777;DHT22;10548;47.504;8.248;2022-09-09T02:13:18;14.20;99.90
20777;DHT22;10548;47.504;8.248;2022-09-09T02:15:56;14.20;99.90
20777;DHT22;10548;47.504;8.248;2022-09-09T02:18:29;14.20;99.90
20777;DHT22;10548;47.504;8.248;2022-09-09T02:20:58;14.20;99.90
20777;DHT22;10548;47.504;8.248;2022-09-09T02:23:26;14.20;99.90
20777;DHT22;10548;47.504;8.248;2022-09-09T02:25:57;14.20;99.90
20777;DHT22;10548;47.504;8.248;2022-09-09T02:28:27;14.10;99.90
20777;DHT22;10548;47.504;8.248;2022-09-09T02:30:55;14.20;99.90
20777;DHT22;10548;47.504;8.248;2022-09-09T02:33:35;14.20;99.90
20777;DHT22;10548;47.504;8.248;2022-09-09T02:36:06;14.20;99.90
20777;DHT22;10548;47.504;8.248;2022-09-09T02:38:39;14.20;99.90
20777;DHT22;10548;47.504;8.248;2022-09-09T02:41:12;14.30;99.90
20777;DHT22;10548;47.504;8.248;2022-09-09T02:43:39;14.30;99.90
20777;DHT22;10548;47.504;8.248;2022-09-09T02:49:43;14.30;99.90
20777;DHT22;10548;47.504;8.248;2022-09-09T02:52:32;14.40;99.90
20777;DHT22;10548;47.504;8.248;2022-09-09T02:55:07;14.40;99.90
20777;DHT22;10548;47.504;8.248;2022-09-09T02:57:37;14.50;99.90
20777;DHT22;10548;47.504;8.248;2022-09-09T03:00:07;14.50;99.90
20777;DHT22;10548;47.504;8.248;2022-09-09T03:02:34;14.50;99.90
20777;DHT22;10548;47.504;8.248;2022-09-09T03:05:06;14.50;99.90
20777;DHT22;10548;47.504;8.248;2022-09-09T03:07:33;14.50;99.90
20777;DHT22;10548;47.504;8.248;2022-09-09T03:10:01;14.40;99.90
20777;DHT22;10548;47.504;8.248;2022-09-09T03:12:28;14.20;99.90
20777;DHT22;10548;47.504;8.248;2022-09-09T03:14:56;14.30;99.90
20777;DHT22;10548;47.504;8.248;2022-09-09T03:17:23;14.30;99.90
20777;DHT22;10548;47.504;8.248;2022-09-09T03:19:53;14.30;99.90
20777;DHT22;10548;47.504;8.248;2022-09-09T03:22:22;14.30;99.90
20777;DHT22;10548;47.504;8.248;2022-09-09T03:24:49;14.40;99.90
20777;DHT22;10548;47.504;8.248;2022-09-09T03:27:16;14.40;99.90
20777;DHT22;10548;47.504;8.248;2022-09-09T03:29:44;14.40;99.90
20777;DHT22;10548;47.504;8.248;2022-09-09T03:32:18;14.40;99.90
20777;DHT22;10548;47.504;8.248;2022-09-09T03:34:45;14.50;99.90
20777;DHT22;10548;47.504;8.248;2022-09-09T03:37:16;14.50;99.90
20777;DHT22;10548;47.504;8.248;2022-09-09T03:39:45;14.40;99.90
20777;DHT22;10548;47.504;8.248;2022-09-09T03:42:15;14.50;99.90
20777;DHT22;10548;47.504;8.248;2022-09-09T03:44:48;14.50;99.90
20777;DHT22;10548;47.504;8.248;2022-09-09T03:47:18;14.50;99.90
20777;DHT22;10548;47.504;8.248;2022-09-09T03:49:46;14.50;99.90
20777;DHT22;10548;47.504;8.248;2022-09-09T03:52:14;14.60;99.90
20777;DHT22;10548;47.504;8.248;2022-09-09T03:54:49;14.50;99.90
20777;DHT22;10548;47.504;8.248;2022-09-09T03:57:16;14.50;99.90
20777;DHT22;10548;47.504;8.248;2022-09-09T03:59:44;14.50;99.90
20777;DHT22;10548;47.504;8.248;2022-09-09T04:02:11;14.50;99.90
20777;DHT22;10548;47.504;8.248;2022-09-09T04:04:38;14.60;99.90
20777;DHT22;10548;47.504;8.248;2022-09-09T04:07:06;14.60;99.90
20777;DHT22;10548;47.504;8.248;2022-09-09T04:09:34;14.60;99.90
20777;DHT22;10548;47.504;8.248;2022-09-09T04:12:02;14.60;99.90
20777;DHT22;10548;47.504;8.248;2022-09-09T04:14:30;14.60;99.90
20777;DHT22;10548;47.504;8.248;2022-09-09T04:16:57;14.50;99.90
20777;DHT22;10548;47.504;8.248;2022-09-09T04:19:26;14.50;99.90
20777;DHT22;10548;47.504;8.248;2022-09-09T04:21:53;14.50;99.90
20777;DHT22;10548;47.504;8.248;2022-09-09T04:24:22;14.50;99.90
20777;DHT22;10548;47.504;8.248;2022-09-09T04:26:49;14.50;99.90
20777;DHT22;10548;47.504;8.248;2022-09-09T04:29:16;14.50;99.90
20777;DHT22;10548;47.504;8.248;2022-09-09T04:31:44;14.50;99.90
20777;DHT22;10548;47.504;8.248;2022-09-09T04:34:12;14.50;99.90
20777;DHT22;10548;47.504;8.248;2022-09-09T04:36:40;14.50;99.90
20777;DHT22;10548;47.504;8.248;2022-09-09T04:39:08;14.50;99.90
20777;DHT22;10548;47.504;8.248;2022-09-09T04:41:35;14.50;99.90
20777;DHT22;10548;47.504;8.248;2022-09-09T04:44:03;14.50;99.90
20777;DHT22;10548;47.504;8.248;2022-09-09T04:46:31;14.50;99.90
20777;DHT22;10548;47.504;8.248;2022-09-09T04:49:00;14.40;99.90
20777;DHT22;10548;47.504;8.248;2022-09-09T04:51:30;14.40;99.90
20777;DHT22;10548;47.504;8.248;2022-09-09T04:53:58;14.40;99.90
20777;DHT22;10548;47.504;8.248;2022-09-09T04:56:25;14.50;99.90
20777;DHT22;10548;47.504;8.248;2022-09-09T04:58:57;14.50;99.90
20777;DHT22;10548;47.504;8.248;2022-09-09T05:01:36;14.40;99.90
20777;DHT22;10548;47.504;8.248;2022-09-09T05:04:04;14.40;99.90
20777;DHT22;10548;47.504;8.248;2022-09-09T05:06:33;14.40;99.90
20777;DHT22;10548;47.504;8.248;2022-09-09T05:09:01;14.40;99.90
20777;DHT22;10548;47.504;8.248;2022-09-09T05:11:31;14.40;99.90
20777;DHT22;10548;47.504;8.248;2022-09-09T05:14:14;14.40;99.90
20777;DHT22;10548;47.504;8.248;2022-09-09T05:16:41;14.40;99.90
20777;DHT22;10548;47.504;8.248;2022-09-09T05:19:11;14.40;99.90
20777;DHT22;10548;47.504;8.248;2022-09-09T05:21:44;14.40;99.90
20777;DHT22;10548;47.504;8.248;2022-09-09T05:24:12;14.40;99.90
20777;DHT22;10548;47.504;8.248;2022-09-09T05:26:40;14.50;99.90
20777;DHT22;10548;47.504;8.248;2022-09-09T05:29:07;14.50;99.90
20777;DHT22;10548;47.504;8.248;2022-09-09T05:31:35;14.50;99.90
20777;DHT22;10548;47.504;8.248;2022-09-09T05:34:08;14.50;99.90
20777;DHT22;10548;47.504;8.248;2022-09-09T05:36:35;14.50;99.90
20777;DHT22;10548;47.504;8.248;2022-09-09T05:39:03;14.50;99.90
20777;DHT22;10548;47.504;8.248;2022-09-09T05:41:31;14.60;99.90
20777;DHT22;10548;47.504;8.248;2022-09-09T05:44:01;14.60;99.90
20777;DHT22;10548;47.504;8.248;2022-09-09T05:46:33;14.70;99.90
20777;DHT22;10548;47.504;8.248;2022-09-09T05:49:00;14.60;99.90
20777;DHT22;10548;47.504;8.248;2022-09-09T05:51:31;14.60;99.90
20777;DHT22;10548;47.504;8.248;2022-09-09T05:54:03;14.60;99.90
20777;DHT22;10548;47.504;8.248;2022-09-09T05:56:34;14.70;99.90
20777;DHT22;10548;47.504;8.248;2022-09-09T05:59:01;14.80;99.90
20777;DHT22;10548;47.504;8.248;2022-09-09T06:01:31;14.90;99.90
20777;DHT22;10548;47.504;8.248;2022-09-09T06:04:01;14.80;99.90
20777;DHT22;10548;47.504;8.248;2022-09-09T06:06:37;14.90;99.90
20777;DHT22;10548;47.504;8.248;2022-09-09T06:09:16;14.90;99.90
20777;DHT22;10548;47.504;8.248;2022-09-09T06:11:43;15.10;99.90
20777;DHT22;10548;47.504;8.248;2022-09-09T06:14:11;15.20;99.90
20777;DHT22;10548;47.504;8.248;2022-09-09T06:16:39;15.30;99.90
20777;DHT22;10548;47.504;8.248;2022-09-09T06:19:15;15.50;99.90
20777;DHT22;10548;47.504;8.248;2022-09-09T06:21:43;15.60;99.90
20777;DHT22;10548;47.504;8.248;2022-09-09T06:24:12;15.70;99.90
20777;DHT22;10548;47.504;8.248;2022-09-09T06:26:41;15.90;99.90
20777;DHT22;10548;47.504;8.248;2022-09-09T06:29:11;15.90;99.90
20777;DHT22;10548;47.504;8.248;2022-09-09T06:31:39;15.90;99.90
20777;DHT22;10548;47.504;8.248;2022-09-09T06:34:19;15.90;99.90
20777;DHT22;10548;47.504;8.248;2022-09-09T06:36:49;15.90;99.90
20777;DHT22;10548;47.504;8.248;2022-09-09T06:39:16;15.80;99.90
20777;DHT22;10548;47.504;8.248;2022-09-09T06:41:44;15.60;99.90
20777;DHT22;10548;47.504;8.248;2022-09-09T06:44:31;15.80;99.90
20777;DHT22;10548;47.504;8.248;2022-09-09T06:47:02;15.90;99.90
20777;DHT22;10548;47.504;8.248;2022-09-09T06:49:31;15.90;99.90
20777;DHT22;10548;47.504;8.248;2022-09-09T06:52:00;16.00;99.90
20777;DHT22;10548;47.504;8.248;2022-09-09T06:54:28;16.10;99.90
20777;DHT22;10548;47.504;8.248;2022-09-09T06:56:56;16.20;99.90
20777;DHT22;10548;47.504;8.248;2022-09-09T06:59:24;16.00;99.90
20777;DHT22;10548;47.504;8.248;2022-09-09T07:01:54;16.20;99.90
20777;DHT22;10548;47.504;8.248;2022-09-09T07:04:23;16.10;99.90
20777;DHT22;10548;47.504;8.248;2022-09-09T07:06:50;16.00;99.90
20777;DHT22;10548;47.504;8.248;2022-09-09T07:09:24;16.20;99.90
20777;DHT22;10548;47.504;8.248;2022-09-09T07:11:53;16.40;99.90
20777;DHT22;10548;47.504;8.248;2022-09-09T07:14:23;16.50;99.90
20777;DHT22;10548;47.504;8.248;2022-09-09T07:17:00;16.50;99.90
20777;DHT22;10548;47.504;8.248;2022-09-09T07:19:32;16.40;99.90
20777;DHT22;10548;47.504;8.248;2022-09-09T07:22:03;16.60;99.90
20777;DHT22;10548;47.504;8.248;2022-09-09T07:24:32;16.80;99.90
20777;DHT22;10548;47.504;8.248;2022-09-09T07:26:59;16.60;99.90
20777;DHT22;10548;47.504;8.248;2022-09-09T07:29:26;16.50;99.90
20777;DHT22;10548;47.504;8.248;2022-09-09T07:31:54;16.90;99.90
20777;DHT22;10548;47.504;8.248;2022-09-09T07:34:26;17.00;99.90
20777;DHT22;10548;47.504;8.248;2022-09-09T07:36:53;17.00;99.90
20777;DHT22;10548;47.504;8.248;2022-09-09T07:39:21;16.70;99.90
20777;DHT22;10548;47.504;8.248;2022-09-09T07:41:52;16.70;99.90
20777;DHT22;10548;47.504;8.248;2022-09-09T07:44:23;16.80;99.90
20777;DHT22;10548;47.504;8.248;2022-09-09T07:47:03;17.20;99.90
20777;DHT22;10548;47.504;8.248;2022-09-09T07:49:35;17.20;99.90
20777;DHT22;10548;47.504;8.248;2022-09-09T07:52:04;16.90;99.90
20777;DHT22;10548;47.504;8.248;2022-09-09T07:54:33;17.00;99.90
20777;DHT22;10548;47.504;8.248;2022-09-09T07:57:03;17.20;99.90
20777;DHT22;10548;47.504;8.248;2022-09-09T07:59:33;17.50;99.90
20777;DHT22;10548;47.504;8.248;2022-09-09T08:02:02;18.00;99.90
20777;DHT22;10548;47.504;8.248;2022-09-09T08:04:31;18.30;99.90
20777;DHT22;10548;47.504;8.248;2022-09-09T08:07:00;18.10;99.90
20777;DHT22;10548;47.504;8.248;2022-09-09T08:09:31;17.90;99.90
20777;DHT22;10548;47.504;8.248;2022-09-09T08:12:20;18.40;99.90
20777;DHT22;10548;47.504;8.248;2022-09-09T08:14:47;18.40;99.90
20777;DHT22;10548;47.504;8.248;2022-09-09T08:17:15;19.20;99.90
20777;DHT22;10548;47.504;8.248;2022-09-09T08:19:43;19.20;99.90
20777;DHT22;10548;47.504;8.248;2022-09-09T08:22:16;18.90;99.90
20777;DHT22;10548;47.504;8.248;2022-09-09T08:24:44;18.80;99.90
20777;DHT22;10548;47.504;8.248;2022-09-09T08:27:12;18.80;99.90
20777;DHT22;10548;47.504;8.248;2022-09-09T08:29:39;18.90;99.90
20777;DHT22;10548;47.504;8.248;2022-09-09T08:32:07;19.70;99.90
20777;DHT22;10548;47.504;8.248;2022-09-09T08:34:35;19.70;99.90
20777;DHT22;10548;47.504;8.248;2022-09-09T08:37:10;19.00;99.90
20777;DHT22;10548;47.504;8.248;2022-09-09T08:39:39;18.80;99.90
20777;DHT22;10548;47.504;8.248;2022-09-09T08:42:43;18.90;99.90
20777;DHT22;10548;47.504;8.248;2022-09-09T08:45:45;19.30;99.90
20777;DHT22;10548;47.504;8.248;2022-09-09T08:48:52;19.60;99.90
20777;DHT22;10548;47.504;8.248;2022-09-09T08:51:26;19.50;99.90
20777;DHT22;10548;47.504;8.248;2022-09-09T08:53:55;19.30;99.90
20777;DHT22;10548;47.504;8.248;2022-09-09T08:56:26;19.60;99.90
20777;DHT22;10548;47.504;8.248;2022-09-09T08:59:00;19.00;99.90
20777;DHT22;10548;47.504;8.248;2022-09-09T09:01:48;18.90;99.90
20777;DHT22;10548;47.504;8.248;2022-09-09T09:04:56;19.00;99.90
20777;DHT22;10548;47.504;8.248;2022-09-09T09:07:50;18.80;99.90
20777;DHT22;10548;47.504;8.248;2022-09-09T09:10:47;18.50;99.90
20777;DHT22;10548;47.504;8.248;2022-09-09T09:13:45;18.40;99.90
20777;DHT22;10548;47.504;8.248;2022-09-09T09:16:43;18.10;99.90
20777;DHT22;10548;47.504;8.248;2022-09-09T09:19:15;18.20;99.90
20777;DHT22;10548;47.504;8.248;2022-09-09T09:22:11;18.40;99.90
20777;DHT22;10548;47.504;8.248;2022-09-09T09:31:10;19.50;99.90
20777;DHT22;10548;47.504;8.248;2022-09-09T09:33:51;19.20;99.90
20777;DHT22;10548;47.504;8.248;2022-09-09T09:36:58;18.90;99.90
20777;DHT22;10548;47.504;8.248;2022-09-09T09:39:32;18.40;99.90
20777;DHT22;10548;47.504;8.248;2022-09-09T09:42:25;18.20;99.90
20777;DHT22;10548;47.504;8.248;2022-09-09T09:44:55;18.00;99.90
20777;DHT22;10548;47.504;8.248;2022-09-09T09:47:23;17.70;99.90
20777;DHT22;10548;47.504;8.248;2022-09-09T09:50:18;17.50;99.90
20777;DHT22;10548;47.504;8.248;2022-09-09T09:52:59;17.70;99.90
20777;DHT22;10548;47.504;8.248;2022-09-09T09:55:30;17.60;99.90
20777;DHT22;10548;47.504;8.248;2022-09-09T09:58:06;17.70;99.90
20777;DHT22;10548;47.504;8.248;2022-09-09T10:00:36;18.00;99.90
20777;DHT22;10548;47.504;8.248;2022-09-09T10:03:30;17.80;99.90
20777;DHT22;10548;47.504;8.248;2022-09-09T10:06:00;17.90;99.90
20777;DHT22;10548;47.504;8.248;2022-09-09T10:08:28;17.80;99.90
20777;DHT22;10548;47.504;8.248;2022-09-09T10:15:18;18.10;99.90
20777;DHT22;10548;47.504;8.248;2022-09-09T10:18:14;18.60;99.90
20777;DHT22;10548;47.504;8.248;2022-09-09T10:26:58;18.40;99.90
20777;DHT22;10548;47.504;8.248;2022-09-09T10:30:08;19.20;99.90
20777;DHT22;10548;47.504;8.248;2022-09-09T10:33:30;20.00;99.90
20777;DHT22;10548;47.504;8.248;2022-09-09T10:35:35;20.80;99.90
20777;DHT22;10548;47.504;8.248;2022-09-09T10:38:42;21.60;99.90
20777;DHT22;10548;47.504;8.248;2022-09-09T10:51:49;22.40;99.80
20777;DHT22;10548;47.504;8.248;2022-09-09T10:54:29;22.60;97.60
20777;DHT22;10548;47.504;8.248;2022-09-09T10:57:03;23.20;94.20
20777;DHT22;10548;47.504;8.248;2022-09-09T10:59:38;22.50;81.50
20777;DHT22;10548;47.504;8.248;2022-09-09T11:02:18;23.00;76.80
20777;DHT22;10548;47.504;8.248;2022-09-09T11:05:06;23.40;75.70
20777;DHT22;10548;47.504;8.248;2022-09-09T11:07:47;22.90;72.90
20777;DHT22;10548;47.504;8.248;2022-09-09T11:10:38;22.20;71.90
20777;DHT22;10548;47.504;8.248;2022-09-09T11:13:38;23.80;70.80
20777;DHT22;10548;47.504;8.248;2022-09-09T11:19:34;23.10;72.70
20777;DHT22;10548;47.504;8.248;2022-09-09T11:22:27;24.70;67.10
20777;DHT22;10548;47.504;8.248;2022-09-09T11:25:06;24.60;63.90
20777;DHT22;10548;47.504;8.248;2022-09-09T11:28:46;24.80;61.70
20777;DHT22;10548;47.504;8.248;2022-09-09T11:31:13;24.00;61.70
20777;DHT22;10548;47.504;8.248;2022-09-09T11:34:27;24.60;63.50
20777;DHT22;10548;47.504;8.248;2022-09-09T11:37:35;24.70;66.60
20777;DHT22;10548;47.504;8.248;2022-09-09T11:40:24;23.20;85.70
20777;DHT22;10548;47.504;8.248;2022-09-09T11:43:09;24.90;78.70
20777;DHT22;10548;47.504;8.248;2022-09-09T11:45:41;23.40;75.50
20777;DHT22;10548;47.504;8.248;2022-09-09T12:12:34;25.50;66.90
20777;DHT22;10548;47.504;8.248;2022-09-09T12:15:24;25.90;61.50
20777;DHT22;10548;47.504;8.248;2022-09-09T12:17:53;24.40;65.10
20777;DHT22;10548;47.504;8.248;2022-09-09T12:20:36;23.20;68.40
20777;DHT22;10548;47.504;8.248;2022-09-09T12:30:03;23.80;43.60
20777;DHT22;10548;47.504;8.248;2022-09-09T12:32:16;24.50;40.20
20777;DHT22;10548;47.504;8.248;2022-09-09T12:35:19;24.50;43.00
20777;DHT22;10548;47.504;8.248;2022-09-09T12:37:53;25.20;40.80
20777;DHT22;10548;47.504;8.248;2022-09-09T12:40:31;25.70;40.90
20777;DHT22;10548;47.504;8.248;2022-09-09T12:43:19;26.50;38.30
20777;DHT22;10548;47.504;8.248;2022-09-09T12:45:48;26.90;37.50
20777;DHT22;10548;47.504;8.248;2022-09-09T12:48:18;26.80;33.50
20777;DHT22;10548;47.504;8.248;2022-09-09T12:50:51;26.20;35.40
20777;DHT22;10548;47.504;8.248;2022-09-09T12:53:31;26.10;35.90
20777;DHT22;10548;47.504;8.248;2022-09-09T12:56:09;24.70;38.90
20777;DHT22;10548;47.504;8.248;2022-09-09T12:58:47;25.40;37.00
20777;DHT22;10548;47.504;8.248;2022-09-09T13:01:31;25.80;32.30
20777;DHT22;10548;47.504;8.248;2022-09-09T13:04:00;25.50;34.60
20777;DHT22;10548;47.504;8.248;2022-09-09T13:06:31;23.70;42.60
20777;DHT22;10548;47.504;8.248;2022-09-09T13:09:00;23.60;42.30
20777;DHT22;10548;47.504;8.248;2022-09-09T13:11:36;25.10;40.60
20777;DHT22;10548;47.504;8.248;2022-09-09T13:14:05;25.30;39.10
20777;DHT22;10548;47.504;8.248;2022-09-09T13:19:13;23.90;40.50
20777;DHT22;10548;47.504;8.248;2022-09-09T13:21:42;23.30;42.50
20777;DHT22;10548;47.504;8.248;2022-09-09T13:24:29;23.80;44.80
20777;DHT22;10548;47.504;8.248;2022-09-09T13:27:02;25.70;41.30
20777;DHT22;10548;47.504;8.248;2022-09-09T13:29:31;25.90;39.80
20777;DHT22;10548;47.504;8.248;2022-09-09T13:32:07;25.80;38.70
20777;DHT22;10548;47.504;8.248;2022-09-09T13:34:39;25.80;42.30
20777;DHT22;10548;47.504;8.248;2022-09-09T13:37:37;25.60;40.60
20777;DHT22;10548;47.504;8.248;2022-09-09T13:40:06;25.90;40.40
20777;DHT22;10548;47.504;8.248;2022-09-09T13:42:44;25.50;39.60
20777;DHT22;10548;47.504;8.248;2022-09-09T13:45:18;24.40;40.60
20777;DHT22;10548;47.504;8.248;2022-09-09T13:47:47;23.30;41.10
20777;DHT22;10548;47.504;8.248;2022-09-09T13:50:29;23.00;42.00
20777;DHT22;10548;47.504;8.248;2022-09-09T13:55:27;22.20;50.40
20777;DHT22;10548;47.504;8.248;2022-09-09T13:57:56;22.10;51.90
20777;DHT22;10548;47.504;8.248;2022-09-09T14:00:24;21.90;51.30
20777;DHT22;10548;47.504;8.248;2022-09-09T14:02:51;22.30;49.40
20777;DHT22;10548;47.504;8.248;2022-09-09T14:05:19;22.40;49.50
20777;DHT22;10548;47.504;8.248;2022-09-09T14:07:48;24.10;47.30
20777;DHT22;10548;47.504;8.248;2022-09-09T14:10:19;27.00;39.60
20777;DHT22;10548;47.504;8.248;2022-09-09T14:12:47;27.40;36.30
20777;DHT22;10548;47.504;8.248;2022-09-09T14:15:14;26.30;38.80
20777;DHT22;10548;47.504;8.248;2022-09-09T14:17:41;26.30;39.50
20777;DHT22;10548;47.504;8.248;2022-09-09T14:20:09;26.70;38.10
20777;DHT22;10548;47.504;8.248;2022-09-09T14:22:38;27.90;34.80
20777;DHT22;10548;47.504;8.248;2022-09-09T14:27:36;28.30;32.50
20777;DHT22;10548;47.504;8.248;2022-09-09T14:37:27;24.60;53.60
20777;DHT22;10548;47.504;8.248;2022-09-09T14:39:54;27.30;51.60
20777;DHT22;10548;47.504;8.248;2022-09-09T14:42:22;29.60;46.70
20777;DHT22;10548;47.504;8.248;2022-09-09T14:44:49;29.70;45.60
20777;DHT22;10548;47.504;8.248;2022-09-09T14:47:16;31.20;42.70
20777;DHT22;10548;47.504;8.248;2022-09-09T14:52:13;28.20;44.30
20777;DHT22;10548;47.504;8.248;2022-09-09T14:54:40;30.50;41.40
20777;DHT22;10548;47.504;8.248;2022-09-09T14:57:07;30.10;40.00
20777;DHT22;10548;47.504;8.248;2022-09-09T14:59:34;30.90;39.40
20777;DHT22;10548;47.504;8.248;2022-09-09T15:02:01;31.80;37.20
20777;DHT22;10548;47.504;8.248;2022-09-09T15:04:31;32.20;36.00
20777;DHT22;10548;47.504;8.248;2022-09-09T15:06:58;32.00;35.70
20777;DHT22;10548;47.504;8.248;2022-09-09T15:09:25;30.90;36.20
20777;DHT22;10548;47.504;8.248;2022-09-09T15:11:53;27.70;43.70
20777;DHT22;10548;47.504;8.248;2022-09-09T15:14:20;25.80;46.90
20777;DHT22;10548;47.504;8.248;2022-09-09T15:16:51;24.40;51.80
20777;DHT22;10548;47.504;8.248;2022-09-09T15:19:18;24.90;52.90
20777;DHT22;10548;47.504;8.248;2022-09-09T15:21:45;27.90;45.40
20777;DHT22;10548;47.504;8.248;2022-09-09T15:24:12;28.50;44.60
20777;DHT22;10548;47.504;8.248;2022-09-09T15:26:40;31.50;38.60
20777;DHT22;10548;47.504;8.248;2022-09-09T15:29:07;30.60;35.20
20777;DHT22;10548;47.504;8.248;2022-09-09T15:31:35;27.80;41.10
20777;DHT22;10548;47.504;8.248;2022-09-09T15:34:07;26.80;45.90
20777;DHT22;10548;47.504;8.248;2022-09-09T15:36:39;29.70;42.20
20777;DHT22;10548;47.504;8.248;2022-09-09T15:39:08;31.40;37.30
20777;DHT22;10548;47.504;8.248;2022-09-09T15:41:40;28.40;39.80
20777;DHT22;10548;47.504;8.248;2022-09-09T15:44:07;28.20;40.90
20777;DHT22;10548;47.504;8.248;2022-09-09T15:46:43;30.00;39.80
20777;DHT22;10548;47.504;8.248;2022-09-09T15:49:15;30.30;37.10
20777;DHT22;10548;47.504;8.248;2022-09-09T15:51:53;30.40;36.20
20777;DHT22;10548;47.504;8.248;2022-09-09T15:54:22;29.50;39.70
20777;DHT22;10548;47.504;8.248;2022-09-09T15:56:57;30.20;38.30
20777;DHT22;10548;47.504;8.248;2022-09-09T15:59:27;31.20;35.40
20777;DHT22;10548;47.504;8.248;2022-09-09T16:01:58;31.10;36.10
20777;DHT22;10548;47.504;8.248;2022-09-09T16:04:27;29.90;38.50
20777;DHT22;10548;47.504;8.248;2022-09-09T16:07:00;31.00;35.10
20777;DHT22;10548;47.504;8.248;2022-09-09T16:09:28;31.00;34.80
20777;DHT22;10548;47.504;8.248;2022-09-09T16:11:57;29.20;37.30
20777;DHT22;10548;47.504;8.248;2022-09-09T16:14:25;28.30;38.80
20777;DHT22;10548;47.504;8.248;2022-09-09T16:19:23;27.00;40.90
20777;DHT22;10548;47.504;8.248;2022-09-09T16:21:50;23.90;47.30
20777;DHT22;10548;47.504;8.248;2022-09-09T16:24:19;22.70;48.10
20777;DHT22;10548;47.504;8.248;2022-09-09T16:26:55;22.50;49.50
20777;DHT22;10548;47.504;8.248;2022-09-09T16:29:23;22.40;50.40
20777;DHT22;10548;47.504;8.248;2022-09-09T16:31:50;21.80;50.80
20777;DHT22;10548;47.504;8.248;2022-09-09T16:36:47;20.90;54.70
20777;DHT22;10548;47.504;8.248;2022-09-09T16:39:17;20.90;56.00
20777;DHT22;10548;47.504;8.248;2022-09-09T16:41:45;20.80;47.60
20777;DHT22;10548;47.504;8.248;2022-09-09T16:44:15;20.80;47.10
20777;DHT22;10548;47.504;8.248;2022-09-09T16:49:13;20.00;45.60
20777;DHT22;10548;47.504;8.248;2022-09-09T16:51:47;19.80;48.80
20777;DHT22;10548;47.504;8.248;2022-09-09T16:54:15;19.00;54.00
20777;DHT22;10548;47.504;8.248;2022-09-09T16:56:45;19.00;56.50
20777;DHT22;10548;47.504;8.248;2022-09-09T16:59:15;18.90;59.00
20777;DHT22;10548;47.504;8.248;2022-09-09T17:01:43;18.20;62.30
20777;DHT22;10548;47.504;8.248;2022-09-09T17:04:16;18.20;63.50
20777;DHT22;10548;47.504;8.248;2022-09-09T17:06:48;18.10;70.30
20777;DHT22;10548;47.504;8.248;2022-09-09T17:14:16;17.90;74.00
20777;DHT22;10548;47.504;8.248;2022-09-09T17:16:44;17.50;68.00
20777;DHT22;10548;47.504;8.248;2022-09-09T17:19:12;17.50;69.20
20777;DHT22;10548;47.504;8.248;2022-09-09T17:21:39;17.50;66.30
20777;DHT22;10548;47.504;8.248;2022-09-09T17:24:27;17.40;69.80
20777;DHT22;10548;47.504;8.248;2022-09-09T17:26:56;17.30;71.80
20777;DHT22;10548;47.504;8.248;2022-09-09T17:29:24;17.30;72.50
20777;DHT22;10548;47.504;8.248;2022-09-09T17:31:51;17.40;76.80
20777;DHT22;10548;47.504;8.248;2022-09-09T17:34:19;17.80;77.00
20777;DHT22;10548;47.504;8.248;2022-09-09T17:36:46;17.40;80.20
20777;DHT22;10548;47.504;8.248;2022-09-09T17:39:13;17.30;77.60
20777;DHT22;10548;47.504;8.248;2022-09-09T17:41:40;17.40;79.10
20777;DHT22;10548;47.504;8.248;2022-09-09T17:44:08;17.40;80.90
20777;DHT22;10548;47.504;8.248;2022-09-09T17:46:41;17.40;82.30
20777;DHT22;10548;47.504;8.248;2022-09-09T17:49:14;17.40;79.90
20777;DHT22;10548;47.504;8.248;2022-09-09T17:51:42;17.30;91.10
20777;DHT22;10548;47.504;8.248;2022-09-09T17:54:15;17.20;92.10
20777;DHT22;10548;47.504;8.248;2022-09-09T17:56:43;17.00;94.80
20777;DHT22;10548;47.504;8.248;2022-09-09T17:59:12;16.80;97.00
20777;DHT22;10548;47.504;8.248;2022-09-09T18:01:42;16.50;99.90